sensor_id;sensor_type;location;lat;lon;timestamp;temperature;humidity
65985;HTU21D;52748;51.112;5.880;2023-08-12T00:01:24;25.30;68.82
65985;HTU21D;52748;51.112;5.880;2023-08-12T00:03:51;25.33;68.68
65985;HTU21D;52748;51.112;5.880;2023-08-12T00:06:17;25.32;68.51
65985;HTU21D;52748;51.112;5.880;2023-08-12T00:08:42;25.33;68.63
65985;HTU21D;52748;51.112;5.880;2023-08-12T00:11:09;25.34;68.52
65985;HTU21D;52748;51.112;5.880;2023-08-12T00:13:34;25.34;68.42
65985;HTU21D;52748;51.112;5.880;2023-08-12T00:16:00;25.32;68.55
65985;HTU21D;52748;51.112;5.880;2023-08-12T00:18:26;25.31;68.62
65985;HTU21D;52748;51.112;5.880;2023-08-12T00:20:52;25.30;68.74
65985;HTU21D;52748;51.112;5.880;2023-08-12T00:23:18;25.29;68.76
65985;HTU21D;52748;51.112;5.880;2023-08-12T00:25:44;25.30;68.78
65985;HTU21D;52748;51.112;5.880;2023-08-12T00:28:10;25.30;68.68
65985;HTU21D;52748;51.112;5.880;2023-08-12T00:30:36;25.31;68.67
65985;HTU21D;52748;51.112;5.880;2023-08-12T00:33:02;25.29;68.71
65985;HTU21D;52748;51.112;5.880;2023-08-12T00:35:28;25.29;68.75
65985;HTU21D;52748;51.112;5.880;2023-08-12T00:37:53;25.29;68.78
65985;HTU21D;52748;51.112;5.880;2023-08-12T00:40:19;25.28;68.75
65985;HTU21D;52748;51.112;5.880;2023-08-12T00:42:45;25.28;68.81
65985;HTU21D;52748;51.112;5.880;2023-08-12T00:45:12;25.30;68.71
65985;HTU21D;52748;51.112;5.880;2023-08-12T00:47:39;25.32;68.43
65985;HTU21D;52748;51.112;5.880;2023-08-12T00:50:08;25.33;68.25
65985;HTU21D;52748;51.112;5.880;2023-08-12T00:52:34;25.31;68.37
65985;HTU21D;52748;51.112;5.880;2023-08-12T00:55:01;25.30;68.33
65985;HTU21D;52748;51.112;5.880;2023-08-12T00:57:27;25.32;68.33
65985;HTU21D;52748;51.112;5.880;2023-08-12T00:59:56;25.34;68.04
65985;HTU21D;52748;51.112;5.880;2023-08-12T01:02:22;25.31;68.24
65985;HTU21D;52748;51.112;5.880;2023-08-12T01:04:48;25.30;68.31
65985;HTU21D;52748;51.112;5.880;2023-08-12T01:07:14;25.30;68.38
65985;HTU21D;52748;51.112;5.880;2023-08-12T01:09:40;25.30;68.50
65985;HTU21D;52748;51.112;5.880;2023-08-12T01:12:12;25.28;68.60
65985;HTU21D;52748;51.112;5.880;2023-08-12T01:14:45;25.28;68.68
65985;HTU21D;52748;51.112;5.880;2023-08-12T01:17:14;25.27;68.72
65985;HTU21D;52748;51.112;5.880;2023-08-12T01:19:40;25.27;68.71
65985;HTU21D;52748;51.112;5.880;2023-08-12T01:22:09;25.25;68.75
65985;HTU21D;52748;51.112;5.880;2023-08-12T01:24:44;25.25;68.78
65985;HTU21D;52748;51.112;5.880;2023-08-12T01:27:12;25.30;68.57
65985;HTU21D;52748;51.112;5.880;2023-08-12T01:29:42;25.29;68.51
65985;HTU21D;52748;51.112;5.880;2023-08-12T01:32:23;25.29;68.62
65985;HTU21D;52748;51.112;5.880;2023-08-12T01:34:58;25.27;68.64
65985;HTU21D;52748;51.112;5.880;2023-08-12T01:37:29;25.29;68.50
65985;HTU21D;52748;51.112;5.880;2023-08-12T01:40:00;25.27;68.58
65985;HTU21D;52748;51.112;5.880;2023-08-12T01:42:26;25.25;68.58
65985;HTU21D;52748;51.112;5.880;2023-08-12T01:44:54;25.25;68.58
65985;HTU21D;52748;51.112;5.880;2023-08-12T01:47:20;25.27;68.55
65985;HTU21D;52748;51.112;5.880;2023-08-12T01:49:45;25.27;68.41
65985;HTU21D;52748;51.112;5.880;2023-08-12T01:52:11;25.28;68.51
65985;HTU21D;52748;51.112;5.880;2023-08-12T01:54:37;25.27;68.36
65985;HTU21D;52748;51.112;5.880;2023-08-12T01:57:04;25.29;68.33
65985;HTU21D;52748;51.112;5.880;2023-08-12T01:59:35;25.28;68.45
65985;HTU21D;52748;51.112;5.880;2023-08-12T02:02:01;25.31;68.23
65985;HTU21D;52748;51.112;5.880;2023-08-12T02:04:27;25.32;67.95
65985;HTU21D;52748;51.112;5.880;2023-08-12T02:06:54;25.34;67.92
65985;HTU21D;52748;51.112;5.880;2023-08-12T02:09:20;25.34;67.80
65985;HTU21D;52748;51.112;5.880;2023-08-12T02:11:47;25.34;67.88
65985;HTU21D;52748;51.112;5.880;2023-08-12T02:14:13;25.34;67.75
65985;HTU21D;52748;51.112;5.880;2023-08-12T02:16:39;25.35;67.90
65985;HTU21D;52748;51.112;5.880;2023-08-12T02:19:05;25.34;67.80
65985;HTU21D;52748;51.112;5.880;2023-08-12T02:21:30;25.32;68.07
65985;HTU21D;52748;51.112;5.880;2023-08-12T02:23:56;25.30;68.26
65985;HTU21D;52748;51.112;5.880;2023-08-12T02:26:22;25.30;68.30
65985;HTU21D;52748;51.112;5.880;2023-08-12T02:28:48;25.32;68.13
65985;HTU21D;52748;51.112;5.880;2023-08-12T02:31:16;25.31;68.26
65985;HTU21D;52748;51.112;5.880;2023-08-12T02:33:43;25.29;68.35
65985;HTU21D;52748;51.112;5.880;2023-08-12T02:36:09;25.28;68.49
65985;HTU21D;52748;51.112;5.880;2023-08-12T02:38:35;25.27;68.58
65985;HTU21D;52748;51.112;5.880;2023-08-12T02:41:00;25.27;68.62
65985;HTU21D;52748;51.112;5.880;2023-08-12T02:43:26;25.29;68.42
65985;HTU21D;52748;51.112;5.880;2023-08-12T02:45:52;25.31;68.38
65985;HTU21D;52748;51.112;5.880;2023-08-12T02:48:18;25.30;68.78
65985;HTU21D;52748;51.112;5.880;2023-08-12T02:50:44;25.30;68.87
65985;HTU21D;52748;51.112;5.880;2023-08-12T02:53:10;25.31;68.55
65985;HTU21D;52748;51.112;5.880;2023-08-12T02:55:36;25.31;68.59
65985;HTU21D;52748;51.112;5.880;2023-08-12T02:58:04;25.32;68.47
65985;HTU21D;52748;51.112;5.880;2023-08-12T03:00:30;25.30;68.66
65985;HTU21D;52748;51.112;5.880;2023-08-12T03:02:56;25.29;68.79
65985;HTU21D;52748;51.112;5.880;2023-08-12T03:05:22;25.28;68.87
65985;HTU21D;52748;51.112;5.880;2023-08-12T03:07:49;25.27;68.92
65985;HTU21D;52748;51.112;5.880;2023-08-12T03:10:15;25.25;69.12
65985;HTU21D;52748;51.112;5.880;2023-08-12T03:12:41;25.24;69.07
65985;HTU21D;52748;51.112;5.880;2023-08-12T03:15:08;25.24;69.17
65985;HTU21D;52748;51.112;5.880;2023-08-12T03:17:34;25.24;69.17
65985;HTU21D;52748;51.112;5.880;2023-08-12T03:20:02;25.25;69.17
65985;HTU21D;52748;51.112;5.880;2023-08-12T03:22:31;25.24;69.09
65985;HTU21D;52748;51.112;5.880;2023-08-12T03:24:57;25.24;69.19
65985;HTU21D;52748;51.112;5.880;2023-08-12T03:27:23;25.23;69.09
65985;HTU21D;52748;51.112;5.880;2023-08-12T03:29:50;25.22;69.08
65985;HTU21D;52748;51.112;5.880;2023-08-12T03:32:16;25.22;69.17
65985;HTU21D;52748;51.112;5.880;2023-08-12T03:34:42;25.21;69.19
65985;HTU21D;52748;51.112;5.880;2023-08-12T03:37:10;25.22;69.10
65985;HTU21D;52748;51.112;5.880;2023-08-12T03:39:35;25.22;69.09
65985;HTU21D;52748;51.112;5.880;2023-08-12T03:42:01;25.24;68.97
65985;HTU21D;52748;51.112;5.880;2023-08-12T03:44:28;25.23;68.90
65985;HTU21D;52748;51.112;5.880;2023-08-12T03:46:54;25.22;68.93
65985;HTU21D;52748;51.112;5.880;2023-08-12T03:49:20;25.21;68.98
65985;HTU21D;52748;51.112;5.880;2023-08-12T03:51:46;25.21;69.10
65985;HTU21D;52748;51.112;5.880;2023-08-12T03:54:12;25.22;69.15
65985;HTU21D;52748;51.112;5.880;2023-08-12T03:56:39;25.25;68.91
65985;HTU21D;52748;51.112;5.880;2023-08-12T03:59:05;25.28;68.52
65985;HTU21D;52748;51.112;5.880;2023-08-12T04:01:31;25.25;68.57
65985;HTU21D;52748;51.112;5.880;2023-08-12T04:03:57;25.24;68.80
65985;HTU21D;52748;51.112;5.880;2023-08-12T04:06:22;25.24;68.91
65985;HTU21D;52748;51.112;5.880;2023-08-12T04:08:48;25.23;69.01
65985;HTU21D;52748;51.112;5.880;2023-08-12T04:11:14;25.23;68.94
65985;HTU21D;52748;51.112;5.880;2023-08-12T04:13:40;25.23;69.25
65985;HTU21D;52748;51.112;5.880;2023-08-12T04:16:06;25.23;69.26
65985;HTU21D;52748;51.112;5.880;2023-08-12T04:18:32;25.22;69.16
65985;HTU21D;52748;51.112;5.880;2023-08-12T04:20:59;25.22;69.24
65985;HTU21D;52748;51.112;5.880;2023-08-12T04:23:25;25.23;69.16
65985;HTU21D;52748;51.112;5.880;2023-08-12T04:25:52;25.20;69.23
65985;HTU21D;52748;51.112;5.880;2023-08-12T04:28:21;25.23;69.18
65985;HTU21D;52748;51.112;5.880;2023-08-12T04:30:49;25.27;68.93
65985;HTU21D;52748;51.112;5.880;2023-08-12T04:33:19;25.28;68.79
65985;HTU21D;52748;51.112;5.880;2023-08-12T04:35:49;25.30;68.66
65985;HTU21D;52748;51.112;5.880;2023-08-12T04:38:16;25.32;68.53
65985;HTU21D;52748;51.112;5.880;2023-08-12T04:40:43;25.31;68.62
65985;HTU21D;52748;51.112;5.880;2023-08-12T04:43:09;25.29;68.74
65985;HTU21D;52748;51.112;5.880;2023-08-12T04:45:35;25.27;68.85
65985;HTU21D;52748;51.112;5.880;2023-08-12T04:48:02;25.25;69.00
65985;HTU21D;52748;51.112;5.880;2023-08-12T04:50:31;25.25;69.09
65985;HTU21D;52748;51.112;5.880;2023-08-12T04:52:57;25.27;68.91
65985;HTU21D;52748;51.112;5.880;2023-08-12T04:55:25;25.25;68.99
65985;HTU21D;52748;51.112;5.880;2023-08-12T04:57:52;25.24;69.11
65985;HTU21D;52748;51.112;5.880;2023-08-12T05:00:19;25.23;69.19
65985;HTU21D;52748;51.112;5.880;2023-08-12T05:02:44;25.27;69.04
65985;HTU21D;52748;51.112;5.880;2023-08-12T05:05:11;25.25;68.87
65985;HTU21D;52748;51.112;5.880;2023-08-12T05:07:37;25.24;68.97
65985;HTU21D;52748;51.112;5.880;2023-08-12T05:10:03;25.24;69.04
65985;HTU21D;52748;51.112;5.880;2023-08-12T05:12:31;25.22;69.11
65985;HTU21D;52748;51.112;5.880;2023-08-12T05:14:56;25.23;69.03
65985;HTU21D;52748;51.112;5.880;2023-08-12T05:17:22;25.27;68.76
65985;HTU21D;52748;51.112;5.880;2023-08-12T05:19:49;25.28;68.58
65985;HTU21D;52748;51.112;5.880;2023-08-12T05:22:15;25.28;68.58
65985;HTU21D;52748;51.112;5.880;2023-08-12T05:24:41;25.27;68.64
65985;HTU21D;52748;51.112;5.880;2023-08-12T05:27:07;25.24;68.71
65985;HTU21D;52748;51.112;5.880;2023-08-12T05:29:33;25.24;68.80
65985;HTU21D;52748;51.112;5.880;2023-08-12T05:31:59;25.22;68.92
65985;HTU21D;52748;51.112;5.880;2023-08-12T05:34:25;25.24;68.84
65985;HTU21D;52748;51.112;5.880;2023-08-12T05:36:50;25.29;68.52
65985;HTU21D;52748;51.112;5.880;2023-08-12T05:39:16;25.28;68.48
65985;HTU21D;52748;51.112;5.880;2023-08-12T05:41:42;25.28;68.58
65985;HTU21D;52748;51.112;5.880;2023-08-12T05:44:08;25.29;68.46
65985;HTU21D;52748;51.112;5.880;2023-08-12T05:46:33;25.29;68.24
65985;HTU21D;52748;51.112;5.880;2023-08-12T05:48:59;25.27;68.16
65985;HTU21D;52748;51.112;5.880;2023-08-12T05:51:25;25.27;68.28
65985;HTU21D;52748;51.112;5.880;2023-08-12T05:53:51;25.25;68.36
65985;HTU21D;52748;51.112;5.880;2023-08-12T05:56:17;25.22;68.57
65985;HTU21D;52748;51.112;5.880;2023-08-12T05:58:43;25.23;68.70
65985;HTU21D;52748;51.112;5.880;2023-08-12T06:01:08;25.22;68.87
65985;HTU21D;52748;51.112;5.880;2023-08-12T06:03:34;25.22;68.93
65985;HTU21D;52748;51.112;5.880;2023-08-12T06:06:00;25.21;69.06
65985;HTU21D;52748;51.112;5.880;2023-08-12T06:08:26;25.21;69.17
65985;HTU21D;52748;51.112;5.880;2023-08-12T06:10:52;25.22;69.25
65985;HTU21D;52748;51.112;5.880;2023-08-12T06:13:17;25.24;69.12
65985;HTU21D;52748;51.112;5.880;2023-08-12T06:15:43;25.22;69.20
65985;HTU21D;52748;51.112;5.880;2023-08-12T06:18:09;25.21;69.33
65985;HTU21D;52748;51.112;5.880;2023-08-12T06:20:35;25.21;69.41
65985;HTU21D;52748;51.112;5.880;2023-08-12T06:23:00;25.22;69.53
65985;HTU21D;52748;51.112;5.880;2023-08-12T06:25:26;25.21;69.61
65985;HTU21D;52748;51.112;5.880;2023-08-12T06:27:52;25.21;69.65
65985;HTU21D;52748;51.112;5.880;2023-08-12T06:30:18;25.22;69.73
65985;HTU21D;52748;51.112;5.880;2023-08-12T06:32:44;25.21;69.77
65985;HTU21D;52748;51.112;5.880;2023-08-12T06:35:10;25.21;69.83
65985;HTU21D;52748;51.112;5.880;2023-08-12T06:37:36;25.22;69.87
65985;HTU21D;52748;51.112;5.880;2023-08-12T06:40:03;25.21;69.94
65985;HTU21D;52748;51.112;5.880;2023-08-12T06:42:29;25.21;70.04
65985;HTU21D;52748;51.112;5.880;2023-08-12T06:44:57;25.22;70.14
65985;HTU21D;52748;51.112;5.880;2023-08-12T06:47:23;25.22;70.23
65985;HTU21D;52748;51.112;5.880;2023-08-12T06:49:49;25.27;70.00
65985;HTU21D;52748;51.112;5.880;2023-08-12T06:52:15;25.29;69.81
65985;HTU21D;52748;51.112;5.880;2023-08-12T06:54:42;25.30;69.78
65985;HTU21D;52748;51.112;5.880;2023-08-12T06:57:08;25.28;70.02
65985;HTU21D;52748;51.112;5.880;2023-08-12T06:59:33;25.28;70.16
65985;HTU21D;52748;51.112;5.880;2023-08-12T07:01:59;25.31;69.98
65985;HTU21D;52748;51.112;5.880;2023-08-12T07:04:25;25.28;73.82
65985;HTU21D;52748;51.112;5.880;2023-08-12T07:06:51;25.23;76.12
65985;HTU21D;52748;51.112;5.880;2023-08-12T07:09:17;25.22;79.22
65985;HTU21D;52748;51.112;5.880;2023-08-12T07:11:43;25.24;80.95
65985;HTU21D;52748;51.112;5.880;2023-08-12T07:14:09;25.24;78.77
65985;HTU21D;52748;51.112;5.880;2023-08-12T07:16:35;25.25;80.08
65985;HTU21D;52748;51.112;5.880;2023-08-12T07:19:01;25.28;80.70
65985;HTU21D;52748;51.112;5.880;2023-08-12T07:21:27;25.27;84.03
65985;HTU21D;52748;51.112;5.880;2023-08-12T07:23:53;25.23;87.20
65985;HTU21D;52748;51.112;5.880;2023-08-12T07:26:19;25.22;86.53
65985;HTU21D;52748;51.112;5.880;2023-08-12T07:28:45;25.20;88.41
65985;HTU21D;52748;51.112;5.880;2023-08-12T07:31:10;25.18;90.83
65985;HTU21D;52748;51.112;5.880;2023-08-12T07:33:36;25.17;92.88
65985;HTU21D;52748;51.112;5.880;2023-08-12T07:36:02;25.13;94.68
65985;HTU21D;52748;51.112;5.880;2023-08-12T07:38:28;25.08;96.23
65985;HTU21D;52748;51.112;5.880;2023-08-12T07:40:54;25.07;97.00
65985;HTU21D;52748;51.112;5.880;2023-08-12T07:43:20;25.05;98.04
65985;HTU21D;52748;51.112;5.880;2023-08-12T07:45:51;25.04;96.31
65985;HTU21D;52748;51.112;5.880;2023-08-12T07:48:18;25.05;96.36
65985;HTU21D;52748;51.112;5.880;2023-08-12T07:50:44;25.05;96.67
65985;HTU21D;52748;51.112;5.880;2023-08-12T07:53:10;25.06;94.77
65985;HTU21D;52748;51.112;5.880;2023-08-12T07:55:36;25.06;97.23
65985;HTU21D;52748;51.112;5.880;2023-08-12T07:58:02;25.04;100.12
65985;HTU21D;52748;51.112;5.880;2023-08-12T08:00:30;25.06;100.05
65985;HTU21D;52748;51.112;5.880;2023-08-12T08:02:55;25.07;99.84
65985;HTU21D;52748;51.112;5.880;2023-08-12T08:05:21;25.07;101.09
65985;HTU21D;52748;51.112;5.880;2023-08-12T08:07:47;25.04;102.41
65985;HTU21D;52748;51.112;5.880;2023-08-12T08:10:13;25.03;103.16
65985;HTU21D;52748;51.112;5.880;2023-08-12T08:12:39;25.00;104.05
65985;HTU21D;52748;51.112;5.880;2023-08-12T08:15:05;24.95;104.50
65985;HTU21D;52748;51.112;5.880;2023-08-12T08:17:31;24.94;104.64
65985;HTU21D;52748;51.112;5.880;2023-08-12T08:19:57;24.92;105.44
65985;HTU21D;52748;51.112;5.880;2023-08-12T08:22:23;24.90;105.99
65985;HTU21D;52748;51.112;5.880;2023-08-12T08:24:49;24.88;105.33
65985;HTU21D;52748;51.112;5.880;2023-08-12T08:27:14;24.89;105.56
65985;HTU21D;52748;51.112;5.880;2023-08-12T08:29:40;24.91;104.35
65985;HTU21D;52748;51.112;5.880;2023-08-12T08:32:06;24.92;103.67
65985;HTU21D;52748;51.112;5.880;2023-08-12T08:34:32;24.92;104.66
65985;HTU21D;52748;51.112;5.880;2023-08-12T08:36:58;24.97;105.35
65985;HTU21D;52748;51.112;5.880;2023-08-12T08:39:24;25.00;104.95
65985;HTU21D;52748;51.112;5.880;2023-08-12T08:41:53;25.02;105.13
65985;HTU21D;52748;51.112;5.880;2023-08-12T08:44:22;25.02;106.21
65985;HTU21D;52748;51.112;5.880;2023-08-12T08:46:52;25.00;107.26
65985;HTU21D;52748;51.112;5.880;2023-08-12T08:49:22;24.97;107.56
65985;HTU21D;52748;51.112;5.880;2023-08-12T08:51:50;24.98;104.70
65985;HTU21D;52748;51.112;5.880;2023-08-12T08:54:17;25.00;98.35
65985;HTU21D;52748;51.112;5.880;2023-08-12T08:56:44;25.02;95.24
65985;HTU21D;52748;51.112;5.880;2023-08-12T08:59:10;25.05;94.41
65985;HTU21D;52748;51.112;5.880;2023-08-12T09:01:37;25.08;94.88
65985;HTU21D;52748;51.112;5.880;2023-08-12T09:04:05;25.12;94.73
65985;HTU21D;52748;51.112;5.880;2023-08-12T09:06:32;25.15;93.49
65985;HTU21D;52748;51.112;5.880;2023-08-12T09:09:01;25.18;93.33
65985;HTU21D;52748;51.112;5.880;2023-08-12T09:11:29;25.19;93.53
65985;HTU21D;52748;51.112;5.880;2023-08-12T09:13:55;25.18;93.85
65985;HTU21D;52748;51.112;5.880;2023-08-12T09:16:21;25.21;93.25
65985;HTU21D;52748;51.112;5.880;2023-08-12T09:18:47;25.22;92.94
65985;HTU21D;52748;51.112;5.880;2023-08-12T09:21:19;25.23;92.86
65985;HTU21D;52748;51.112;5.880;2023-08-12T09:23:45;25.24;92.26
65985;HTU21D;52748;51.112;5.880;2023-08-12T09:26:19;25.28;91.66
65985;HTU21D;52748;51.112;5.880;2023-08-12T09:28:46;25.30;91.10
65985;HTU21D;52748;51.112;5.880;2023-08-12T09:31:24;25.30;90.66
65985;HTU21D;52748;51.112;5.880;2023-08-12T09:33:51;25.30;90.42
65985;HTU21D;52748;51.112;5.880;2023-08-12T09:36:18;25.33;89.79
65985;HTU21D;52748;51.112;5.880;2023-08-12T09:38:45;25.30;90.01
65985;HTU21D;52748;51.112;5.880;2023-08-12T09:41:11;25.31;89.92
65985;HTU21D;52748;51.112;5.880;2023-08-12T09:43:41;25.30;90.10
65985;HTU21D;52748;51.112;5.880;2023-08-12T09:46:12;25.29;90.31
65985;HTU21D;52748;51.112;5.880;2023-08-12T09:48:41;25.28;90.07
65985;HTU21D;52748;51.112;5.880;2023-08-12T09:51:07;25.28;89.78
65985;HTU21D;52748;51.112;5.880;2023-08-12T09:53:35;25.28;89.70
65985;HTU21D;52748;51.112;5.880;2023-08-12T09:56:06;25.27;89.47
65985;HTU21D;52748;51.112;5.880;2023-08-12T09:58:35;25.27;89.97
65985;HTU21D;52748;51.112;5.880;2023-08-12T10:01:03;25.27;89.99
65985;HTU21D;52748;51.112;5.880;2023-08-12T10:03:33;25.27;89.78
65985;HTU21D;52748;51.112;5.880;2023-08-12T10:05:59;25.27;89.64
65985;HTU21D;52748;51.112;5.880;2023-08-12T10:08:27;25.32;89.17
65985;HTU21D;52748;51.112;5.880;2023-08-12T10:10:53;25.32;89.08
65985;HTU21D;52748;51.112;5.880;2023-08-12T10:13:21;25.31;89.06
65985;HTU21D;52748;51.112;5.880;2023-08-12T10:15:47;25.36;88.64
65985;HTU21D;52748;51.112;5.880;2023-08-12T10:18:15;25.35;88.57
65985;HTU21D;52748;51.112;5.880;2023-08-12T10:20:42;25.38;88.67
65985;HTU21D;52748;51.112;5.880;2023-08-12T10:23:13;25.39;88.46
65985;HTU21D;52748;51.112;5.880;2023-08-12T10:25:43;25.40;88.73
65985;HTU21D;52748;51.112;5.880;2023-08-12T10:28:10;25.42;89.30
65985;HTU21D;52748;51.112;5.880;2023-08-12T10:30:36;25.46;89.56
65985;HTU21D;52748;51.112;5.880;2023-08-12T10:33:03;25.50;89.28
65985;HTU21D;52748;51.112;5.880;2023-08-12T10:35:49;25.54;88.92
65985;HTU21D;52748;51.112;5.880;2023-08-12T10:38:20;25.60;88.74
65985;HTU21D;52748;51.112;5.880;2023-08-12T10:40:50;25.62;88.22
65985;HTU21D;52748;51.112;5.880;2023-08-12T10:43:15;25.62;88.06
65985;HTU21D;52748;51.112;5.880;2023-08-12T10:45:51;25.63;87.44
65985;HTU21D;52748;51.112;5.880;2023-08-12T10:48:21;25.63;87.83
65985;HTU21D;52748;51.112;5.880;2023-08-12T10:50:55;25.65;88.14
65985;HTU21D;52748;51.112;5.880;2023-08-12T10:53:28;25.67;88.46
65985;HTU21D;52748;51.112;5.880;2023-08-12T10:55:59;25.69;88.64
65985;HTU21D;52748;51.112;5.880;2023-08-12T10:58:45;25.68;87.19
65985;HTU21D;52748;51.112;5.880;2023-08-12T11:01:18;25.71;85.93
65985;HTU21D;52748;51.112;5.880;2023-08-12T11:03:46;25.67;86.21
65985;HTU21D;52748;51.112;5.880;2023-08-12T11:06:13;25.66;87.35
65985;HTU21D;52748;51.112;5.880;2023-08-12T11:09:08;25.69;87.71
65985;HTU21D;52748;51.112;5.880;2023-08-12T11:11:35;25.71;87.63
65985;HTU21D;52748;51.112;5.880;2023-08-12T11:14:13;25.74;88.24
65985;HTU21D;52748;51.112;5.880;2023-08-12T11:16:42;25.77;87.44
65985;HTU21D;52748;51.112;5.880;2023-08-12T11:19:08;25.74;86.29
65985;HTU21D;52748;51.112;5.880;2023-08-12T11:21:36;25.71;85.83
65985;HTU21D;52748;51.112;5.880;2023-08-12T11:24:02;25.68;86.52
65985;HTU21D;52748;51.112;5.880;2023-08-12T11:26:28;25.65;86.92
65985;HTU21D;52748;51.112;5.880;2023-08-12T11:28:54;25.63;88.12
65985;HTU21D;52748;51.112;5.880;2023-08-12T11:31:21;25.60;88.10
65985;HTU21D;52748;51.112;5.880;2023-08-12T11:33:48;25.61;93.69
65985;HTU21D;52748;51.112;5.880;2023-08-12T11:36:14;25.62;97.79
65985;HTU21D;52748;51.112;5.880;2023-08-12T11:38:41;25.63;96.42
65985;HTU21D;52748;51.112;5.880;2023-08-12T11:41:08;25.64;94.49
65985;HTU21D;52748;51.112;5.880;2023-08-12T11:43:33;25.64;93.48
65985;HTU21D;52748;51.112;5.880;2023-08-12T11:45:59;25.66;93.98
65985;HTU21D;52748;51.112;5.880;2023-08-12T11:48:28;25.66;95.25
65985;HTU21D;52748;51.112;5.880;2023-08-12T11:50:55;25.64;97.32
65985;HTU21D;52748;51.112;5.880;2023-08-12T11:53:21;25.62;98.51
65985;HTU21D;52748;51.112;5.880;2023-08-12T11:55:48;25.64;95.06
65985;HTU21D;52748;51.112;5.880;2023-08-12T11:58:15;25.61;92.94
65985;HTU21D;52748;51.112;5.880;2023-08-12T12:00:49;25.63;94.60
65985;HTU21D;52748;51.112;5.880;2023-08-12T12:03:16;25.63;95.68
65985;HTU21D;52748;51.112;5.880;2023-08-12T12:05:46;25.64;96.31
65985;HTU21D;52748;51.112;5.880;2023-08-12T12:08:13;25.66;96.29
65985;HTU21D;52748;51.112;5.880;2023-08-12T12:10:39;25.69;95.80
65985;HTU21D;52748;51.112;5.880;2023-08-12T12:13:06;25.71;95.03
65985;HTU21D;52748;51.112;5.880;2023-08-12T12:15:38;25.69;95.78
65985;HTU21D;52748;51.112;5.880;2023-08-12T12:18:10;25.67;97.12
65985;HTU21D;52748;51.112;5.880;2023-08-12T12:20:36;25.72;97.22
65985;HTU21D;52748;51.112;5.880;2023-08-12T12:23:06;25.71;96.76
65985;HTU21D;52748;51.112;5.880;2023-08-12T12:25:32;25.73;97.55
65985;HTU21D;52748;51.112;5.880;2023-08-12T12:27:58;25.74;98.68
65985;HTU21D;52748;51.112;5.880;2023-08-12T12:30:24;25.77;99.37
65985;HTU21D;52748;51.112;5.880;2023-08-12T12:32:49;25.77;96.04
65985;HTU21D;52748;51.112;5.880;2023-08-12T12:35:17;25.75;95.66
65985;HTU21D;52748;51.112;5.880;2023-08-12T12:37:42;25.72;95.17
65985;HTU21D;52748;51.112;5.880;2023-08-12T12:40:09;25.68;95.49
65985;HTU21D;52748;51.112;5.880;2023-08-12T12:42:35;25.65;95.78
65985;HTU21D;52748;51.112;5.880;2023-08-12T12:45:02;25.61;94.67
65985;HTU21D;52748;51.112;5.880;2023-08-12T12:47:29;25.59;95.82
65985;HTU21D;52748;51.112;5.880;2023-08-12T12:49:55;25.60;98.51
65985;HTU21D;52748;51.112;5.880;2023-08-12T12:52:21;25.63;96.81
65985;HTU21D;52748;51.112;5.880;2023-08-12T12:54:47;25.67;96.29
65985;HTU21D;52748;51.112;5.880;2023-08-12T12:57:12;25.73;92.40
65985;HTU21D;52748;51.112;5.880;2023-08-12T12:59:38;25.76;90.05
65985;HTU21D;52748;51.112;5.880;2023-08-12T13:02:05;25.80;89.50
65985;HTU21D;52748;51.112;5.880;2023-08-12T13:04:31;25.81;88.42
65985;HTU21D;52748;51.112;5.880;2023-08-12T13:06:56;25.79;88.47
65985;HTU21D;52748;51.112;5.880;2023-08-12T13:09:23;25.77;88.53
65985;HTU21D;52748;51.112;5.880;2023-08-12T13:11:48;25.75;88.64
65985;HTU21D;52748;51.112;5.880;2023-08-12T13:14:14;25.77;87.54
65985;HTU21D;52748;51.112;5.880;2023-08-12T13:16:44;25.80;87.27
65985;HTU21D;52748;51.112;5.880;2023-08-12T13:19:10;25.82;86.40
65985;HTU21D;52748;51.112;5.880;2023-08-12T13:21:36;25.80;84.68
65985;HTU21D;52748;51.112;5.880;2023-08-12T13:24:01;25.79;85.01
65985;HTU21D;52748;51.112;5.880;2023-08-12T13:26:29;25.78;86.03
65985;HTU21D;52748;51.112;5.880;2023-08-12T13:28:55;25.78;86.07
65985;HTU21D;52748;51.112;5.880;2023-08-12T13:31:20;25.75;85.55
65985;HTU21D;52748;51.112;5.880;2023-08-12T13:33:46;25.75;84.43
65985;HTU21D;52748;51.112;5.880;2023-08-12T13:36:13;25.74;84.12
65985;HTU21D;52748;51.112;5.880;2023-08-12T13:38:39;25.73;83.45
65985;HTU21D;52748;51.112;5.880;2023-08-12T13:41:05;25.72;85.12
65985;HTU21D;52748;51.112;5.880;2023-08-12T13:43:31;25.73;85.14
65985;HTU21D;52748;51.112;5.880;2023-08-12T13:45:56;25.72;85.46
65985;HTU21D;52748;51.112;5.880;2023-08-12T13:48:22;25.72;85.35
65985;HTU21D;52748;51.112;5.880;2023-08-12T13:50:48;25.71;85.37
65985;HTU21D;52748;51.112;5.880;2023-08-12T13:53:16;25.68;85.25
65985;HTU21D;52748;51.112;5.880;2023-08-12T13:55:41;25.67;85.09
65985;HTU21D;52748;51.112;5.880;2023-08-12T13:58:07;25.67;85.36
65985;HTU21D;52748;51.112;5.880;2023-08-12T14:00:33;25.66;85.46
65985;HTU21D;52748;51.112;5.880;2023-08-12T14:02:59;25.68;85.35
65985;HTU21D;52748;51.112;5.880;2023-08-12T14:05:24;25.69;84.84
65985;HTU21D;52748;51.112;5.880;2023-08-12T14:07:50;25.71;84.69
65985;HTU21D;52748;51.112;5.880;2023-08-12T14:10:16;25.72;84.59
65985;HTU21D;52748;51.112;5.880;2023-08-12T14:12:42;25.67;82.17
65985;HTU21D;52748;51.112;5.880;2023-08-12T14:15:08;25.58;75.25
65985;HTU21D;52748;51.112;5.880;2023-08-12T14:17:34;25.54;72.22
65985;HTU21D;52748;51.112;5.880;2023-08-12T14:20:00;25.52;71.38
65985;HTU21D;52748;51.112;5.880;2023-08-12T14:22:26;25.49;70.58
65985;HTU21D;52748;51.112;5.880;2023-08-12T14:24:52;25.51;69.90
65985;HTU21D;52748;51.112;5.880;2023-08-12T14:27:18;25.54;71.03
65985;HTU21D;52748;51.112;5.880;2023-08-12T14:29:45;25.58;71.08
65985;HTU21D;52748;51.112;5.880;2023-08-12T14:32:12;25.61;71.43
65985;HTU21D;52748;51.112;5.880;2023-08-12T14:34:38;25.64;72.04
65985;HTU21D;52748;51.112;5.880;2023-08-12T14:37:04;25.68;72.38
65985;HTU21D;52748;51.112;5.880;2023-08-12T14:39:30;25.71;72.42
65985;HTU21D;52748;51.112;5.880;2023-08-12T14:41:55;25.72;72.81
65985;HTU21D;52748;51.112;5.880;2023-08-12T14:44:21;25.71;72.35
65985;HTU21D;52748;51.112;5.880;2023-08-12T14:46:47;25.69;71.41
65985;HTU21D;52748;51.112;5.880;2023-08-12T14:49:13;25.75;72.05
65985;HTU21D;52748;51.112;5.880;2023-08-12T14:51:39;25.80;71.51
65985;HTU21D;52748;51.112;5.880;2023-08-12T14:54:05;25.84;70.29
65985;HTU21D;52748;51.112;5.880;2023-08-12T14:56:31;25.88;70.06
65985;HTU21D;52748;51.112;5.880;2023-08-12T14:58:57;25.90;70.41
65985;HTU21D;52748;51.112;5.880;2023-08-12T15:01:23;25.91;70.77
65985;HTU21D;52748;51.112;5.880;2023-08-12T15:03:52;25.89;71.68
65985;HTU21D;52748;51.112;5.880;2023-08-12T15:06:21;25.86;71.89
65985;HTU21D;52748;51.112;5.880;2023-08-12T15:08:47;25.84;71.97
65985;HTU21D;52748;51.112;5.880;2023-08-12T15:11:14;25.83;70.85
65985;HTU21D;52748;51.112;5.880;2023-08-12T15:13:40;25.82;69.45